Time;durP1;ratioP1;P1;durP2;ratioP2;P2;SDS_P1;SDS_P2;PMS_P1;PMS_P2;Temp;Humidity;BMP_temperature;BMP_pressure;BME280_temperature;BME280_humidity;BME280_pressure;Samples;Min_cycle;Max_cycle;Signal;HPM_P1;HPM_P2
2021/11/18 00:01:16;;;;;;;;;18.50;15.00;;;;;10.66;72.02;102224.56;4999992;28;45470;-86
2021/11/18 00:03:42;;;;;;;;;15.25;12.50;;;;;10.12;71.98;102139.66;4999376;28;46472;-89
2021/11/18 00:06:07;;;;;;;;;14.75;12.25;;;;;10.58;72.54;102216.22;4999633;28;47374;-90
2021/11/18 00:08:33;;;;;;;;;15.00;12.75;;;;;10.10;72.23;102141.47;5000642;28;45813;-92
2021/11/18 00:17:07;;;;;;;;;16.00;13.00;;;;;10.46;72.46;102200.13;5017941;28;45720;-91
2021/11/18 00:19:33;;;;;;;;;16.00;13.00;;;;;10.55;72.68;102218.97;5017580;28;45565;-88
2021/11/18 00:21:58;;;;;;;;;14.25;12.00;;;;;10.48;72.53;102215.75;5018026;28;45541;-89
2021/11/18 00:24:24;;;;;;;;;12.25;8.50;;;;;10.49;72.60;102220.09;5018335;28;45818;-86
2021/11/18 00:26:54;;;;;;;;;8.75;6.00;;;;;10.44;72.81;102209.81;5019208;28;46357;-88
2021/11/18 00:29:22;;;;;;;;;13.25;12.00;;;;;9.97;72.46;102142.94;5020263;28;45765;-90
2021/11/18 00:31:48;;;;;;;;;13.25;10.75;;;;;10.05;72.79;102152.16;5018816;28;45624;-89
2021/11/18 00:34:13;;;;;;;;;16.75;13.25;;;;;10.00;73.01;102135.78;5017697;28;46519;-90
2021/11/18 00:36:39;;;;;;;;;13.50;12.75;;;;;10.16;72.86;102177.91;5019975;28;45648;-87
2021/11/18 00:39:06;;;;;;;;;12.75;10.50;;;;;9.72;73.07;102093.41;5004990;28;45679;-89
2021/11/18 00:41:33;;;;;;;;;13.75;10.50;;;;;10.34;73.24;102202.44;5024606;28;45595;-88
2021/11/18 00:43:59;;;;;;;;;13.25;12.00;;;;;9.89;73.05;102111.00;5026577;28;45603;-89
2021/11/18 00:46:25;;;;;;;;;12.00;10.00;;;;;10.09;73.33;102153.72;5025693;28;46167;-88
2021/11/18 00:48:51;;;;;;;;;13.50;12.00;;;;;10.12;73.29;102150.13;5007359;28;45948;-91
2021/11/18 00:51:18;;;;;;;;;12.00;11.50;;;;;10.05;73.30;102135.59;5008141;28;45532;-89
2021/11/18 00:53:48;;;;;;;;;12.50;12.25;;;;;10.26;73.14;102173.94;5008181;28;48435;-90
2021/11/18 00:56:14;;;;;;;;;13.25;11.75;;;;;10.18;73.04;102155.13;5023740;28;47420;-91
2021/11/18 01:02:01;;;;;;;;;9.00;8.00;;;;;10.09;73.44;102166.81;5023395;28;45509;-88
2021/11/18 01:04:29;;;;;;;;;13.00;11.50;;;;;10.00;73.33;102159.38;5023243;28;45549;-88
2021/11/18 01:06:55;;;;;;;;;8.75;7.75;;;;;10.16;73.36;102185.75;5004110;28;46757;-89
2021/11/18 01:09:21;;;;;;;;;12.25;11.00;;;;;10.18;73.54;102183.06;5021773;28;45711;-88
2021/11/18 01:11:46;;;;;;;;;15.75;11.25;;;;;9.90;73.49;102146.75;5020275;28;45662;-90
2021/11/18 01:14:15;;;;;;;;;12.50;9.75;;;;;10.14;73.56;102194.59;5019165;28;45561;-89
2021/11/18 01:16:44;;;;;;;;;13.75;12.50;;;;;9.89;73.48;102168.59;5001864;28;46316;-86
2021/11/18 01:19:11;;;;;;;;;9.00;7.75;;;;;10.05;73.64;102196.66;5021382;28;45768;-88
2021/11/18 01:21:38;;;;;;;;;12.75;10.00;;;;;10.01;73.78;102202.97;5020466;28;45799;-85
2021/11/18 01:24:04;;;;;;;;;10.50;7.75;;;;;9.30;73.63;102096.09;5025309;28;45897;-85
2021/11/18 01:26:30;;;;;;;;;14.00;11.25;;;;;9.59;74.12;102149.81;5027555;28;46981;-88
2021/11/18 01:32:31;;;;;;;;;9.25;8.00;;;;;9.71;74.05;102156.31;5023939;28;45503;-86
2021/11/18 01:34:59;;;;;;;;;13.00;11.00;;;;;9.98;74.22;102197.88;5029878;28;45511;-87
2021/11/18 01:37:25;;;;;;;;;13.25;11.00;;;;;10.00;74.02;102201.25;5022471;28;46367;-88
2021/11/18 01:39:50;;;;;;;;;14.00;12.50;;;;;9.90;73.75;102178.16;5022380;28;45699;-88
2021/11/18 01:42:15;;;;;;;;;11.25;8.50;;;;;9.53;73.72;102110.84;5023575;28;45566;-86
2021/11/18 01:44:44;;;;;;;;;14.00;11.25;;;;;10.06;73.85;102210.59;5022547;28;46315;-84
2021/11/18 01:47:11;;;;;;;;;13.00;11.00;;;;;9.92;73.97;102186.81;5022065;28;46897;-86
2021/11/18 01:49:42;;;;;;;;;12.00;10.00;;;;;10.04;74.11;102218.53;5003414;28;45837;-85
2021/11/18 01:52:10;;;;;;;;;10.25;8.25;;;;;10.06;74.00;102216.69;5018901;28;45616;-86
2021/11/18 01:54:36;;;;;;;;;8.00;8.00;;;;;9.71;73.92;102149.31;5000606;28;46376;-86
2021/11/18 01:57:07;;;;;;;;;13.75;10.00;;;;;10.10;73.96;102223.50;5000052;28;47970;-89
2021/11/18 01:59:37;;;;;;;;;14.25;12.25;;;;;10.14;73.85;102229.47;5000264;28;45725;-87
2021/11/18 02:02:03;;;;;;;;;8.75;7.75;;;;;9.76;73.67;102160.44;5017638;28;45631;-86
2021/11/18 02:04:31;;;;;;;;;8.25;8.00;;;;;10.07;73.65;102205.31;5017191;28;45751;-84
2021/11/18 02:07:06;;;;;;;;;8.75;8.75;;;;;9.92;73.47;102195.50;5018230;28;46014;-87
2021/11/18 02:09:40;;;;;;;;;12.25;12.00;;;;;10.09;73.71;102221.78;5018172;28;45823;-86
2021/11/18 02:12:17;;;;;;;;;14.25;9.75;;;;;10.05;73.56;102225.47;5021164;28;45723;-84
2021/11/18 02:14:42;;;;;;;;;14.75;11.25;;;;;10.00;73.66;102227.44;5024042;28;45678;-86
2021/11/18 02:17:10;;;;;;;;;12.00;10.50;;;;;9.66;73.71;102161.75;5006247;28;46856;-87
2021/11/18 02:19:40;;;;;;;;;12.25;11.00;;;;;9.88;73.68;102208.81;5024902;28;45595;-89
2021/11/18 02:22:06;;;;;;;;;15.25;12.50;;;;;9.95;73.98;102218.06;5024306;28;45741;-87
2021/11/18 02:24:41;;;;;;;;;18.50;12.50;;;;;9.75;73.70;102187.50;5005675;28;48308;-86
2021/11/18 02:27:08;;;;;;;;;11.50;11.00;;;;;9.99;73.62;102215.25;4990664;28;46243;-88
2021/11/18 02:29:33;;;;;;;;;16.75;10.50;;;;;9.76;73.37;102184.00;5023720;28;45894;-87
2021/11/18 02:32:03;;;;;;;;;14.25;12.75;;;;;9.96;73.48;102218.00;5005617;28;45790;-88
2021/11/18 02:34:44;;;;;;;;;15.00;12.25;;;;;10.03;73.50;102219.47;5022505;28;45912;-91
2021/11/18 02:37:10;;;;;;;;;17.75;13.75;;;;;9.99;73.53;102214.41;4999790;28;48202;-89
2021/11/18 02:39:36;;;;;;;;;14.50;12.50;;;;;9.91;73.32;102199.03;5018916;28;45971;-92
2021/11/18 02:42:03;;;;;;;;;15.50;13.50;;;;;9.99;73.17;102214.41;5018956;28;45507;-86
2021/11/18 02:47:50;;;;;;;;;16.75;14.50;;;;;10.06;73.11;102232.41;5019073;28;45817;-88
2021/11/18 02:50:22;;;;;;;;;14.00;13.50;;;;;10.08;73.13;102232.34;5019808;28;45846;-90
2021/11/18 02:52:48;;;;;;;;;13.25;12.50;;;;;9.90;73.00;102199.09;5001857;28;45563;-89
2021/11/18 02:55:22;;;;;;;;;15.00;11.00;;;;;10.03;73.16;102224.69;5016869;28;47430;-90
2021/11/18 02:57:48;;;;;;;;;13.50;12.00;;;;;9.48;72.96;102145.06;4999565;28;47220;-87
2021/11/18 03:00:20;;;;;;;;;13.50;13.25;;;;;9.79;72.91;102207.41;5017322;28;45454;-87
2021/11/18 03:02:46;;;;;;;;;14.75;12.50;;;;;9.48;73.27;102186.06;5000239;28;45846;-85
2021/11/18 03:05:13;;;;;;;;;16.25;13.75;;;;;9.69;73.32;102232.25;5016353;28;47467;-88
2021/11/18 03:07:39;;;;;;;;;14.25;11.00;;;;;9.76;73.29;102246.81;5016882;28;45556;-88
2021/11/18 03:10:08;;;;;;;;;13.00;11.25;;;;;9.50;73.53;102186.84;5000692;28;45799;-87
2021/11/18 03:12:34;;;;;;;;;13.25;11.75;;;;;9.54;73.52;102198.88;5019899;28;45562;-87
2021/11/18 03:15:00;;;;;;;;;14.00;12.25;;;;;9.51;73.33;102197.22;5001238;28;46495;-89
2021/11/18 03:17:25;;;;;;;;;16.00;13.75;;;;;9.53;73.52;102207.63;5001338;28;47547;-87
2021/11/18 03:19:51;;;;;;;;;14.75;13.50;;;;;9.82;73.08;102257.03;5001877;28;45927;-88
2021/11/18 03:22:16;;;;;;;;;14.25;13.50;;;;;9.81;73.31;102265.78;5016808;28;45642;-85
2021/11/18 03:24:42;;;;;;;;;14.75;12.50;;;;;9.80;73.42;102240.53;5000214;28;47244;-87
2021/11/18 03:27:08;;;;;;;;;14.75;11.75;;;;;9.81;72.98;102250.09;4999006;28;48096;-88
2021/11/18 03:32:57;;;;;;;;;14.25;12.25;;;;;9.75;73.48;102245.09;5010278;28;45957;-88
2021/11/18 03:35:23;;;;;;;;;16.00;11.75;;;;;9.74;73.87;102246.00;4998425;28;46343;-84
2021/11/18 03:37:49;;;;;;;;;14.00;12.50;;;;;9.61;73.56;102227.31;4998021;28;48315;-84
2021/11/18 03:40:15;;;;;;;;;15.00;12.00;;;;;9.61;73.25;102227.31;4997730;28;45806;-88
2021/11/18 03:42:41;;;;;;;;;13.00;11.75;;;;;9.45;73.38;102205.31;5017938;28;45690;-87
2021/11/18 03:45:08;;;;;;;;;17.25;15.50;;;;;9.28;73.32;102173.78;5005015;28;47742;-87
2021/11/18 03:47:36;;;;;;;;;16.00;13.00;;;;;9.58;73.68;102226.63;5006011;28;47732;-89
2021/11/18 03:50:03;;;;;;;;;16.00;15.50;;;;;9.40;73.45;102188.13;5026691;28;45191;-87
2021/11/18 03:52:29;;;;;;;;;14.25;11.50;;;;;9.50;73.59;102218.25;5027939;28;45545;-87
2021/11/18 03:54:54;;;;;;;;;17.50;11.50;;;;;9.26;73.56;102173.00;5025472;28;45544;-87
2021/11/18 03:57:19;;;;;;;;;12.75;9.25;;;;;9.49;73.49;102214.78;5021970;28;45604;-88
2021/11/18 04:03:09;;;;;;;;;14.75;12.75;;;;;9.69;73.41;102266.28;5019259;28;45623;-87
2021/11/18 04:05:38;;;;;;;;;13.25;12.50;;;;;9.66;73.19;102253.34;5016021;28;46764;-88
2021/11/18 04:08:04;;;;;;;;;16.25;13.50;;;;;9.64;73.33;102250.78;5015559;28;46344;-87
2021/11/18 04:10:31;;;;;;;;;21.00;17.00;;;;;9.60;73.07;102264.03;5016108;28;45669;-89
2021/11/18 04:12:57;;;;;;;;;20.75;16.75;;;;;9.41;73.33;102250.84;5016788;28;45536;-89
2021/11/18 04:15:25;;;;;;;;;18.00;15.75;;;;;9.46;73.49;102272.44;4997316;28;47433;-88
2021/11/18 04:17:51;;;;;;;;;16.50;14.00;;;;;9.44;73.30;102268.19;5018817;28;45427;-89
2021/11/18 04:20:17;;;;;;;;;16.00;13.00;;;;;9.35;73.31;102266.78;5018164;28;45906;-89
2021/11/18 04:22:44;;;;;;;;;14.75;13.75;;;;;9.27;73.67;102266.22;5002927;28;45431;-88
2021/11/18 04:25:12;;;;;;;;;19.25;16.75;;;;;9.25;73.49;102268.91;5000633;28;47598;-86
2021/11/18 04:27:41;;;;;;;;;19.00;16.00;;;;;9.22;73.74;102265.56;5018735;28;46194;-88
2021/11/18 04:33:31;;;;;;;;;16.50;15.75;;;;;9.16;73.92;102269.25;5015088;28;45603;-89
2021/11/18 04:35:57;;;;;;;;;20.50;15.25;;;;;9.28;73.73;102276.63;5002137;28;48410;-89
2021/11/18 04:38:23;;;;;;;;;18.75;16.00;;;;;9.17;73.97;102260.50;5019086;28;46158;-87
2021/11/18 04:40:49;;;;;;;;;20.50;16.75;;;;;9.30;73.71;102286.16;5000757;28;45863;-88
2021/11/18 04:43:15;;;;;;;;;15.50;15.50;;;;;9.08;73.96;102250.38;5019229;28;45625;-89
2021/11/18 04:45:42;;;;;;;;;16.75;13.25;;;;;8.87;73.75;102219.84;5000978;28;47599;-85
2021/11/18 04:48:07;;;;;;;;;16.00;14.75;;;;;9.27;73.86;102293.25;5002218;28;47535;-88
2021/11/18 04:50:34;;;;;;;;;20.75;15.00;;;;;9.25;73.84;102305.50;5019958;28;45528;-90
2021/11/18 04:53:00;;;;;;;;;13.00;11.25;;;;;8.75;73.91;102229.00;5001968;28;45597;-84
2021/11/18 04:55:28;;;;;;;;;11.50;10.25;;;;;9.05;74.07;102271.44;5003086;28;48579;-86
2021/11/18 04:57:57;;;;;;;;;11.50;10.25;;;;;9.13;74.11;102292.91;5022359;28;46204;-89
2021/11/18 05:03:51;;;;;;;;;15.75;11.75;;;;;9.25;74.15;102322.97;5020187;28;45761;-87
2021/11/18 05:06:18;;;;;;;;;13.00;10.75;;;;;9.27;74.04;102321.16;5000947;28;47568;-87
2021/11/18 05:08:45;;;;;;;;;10.75;10.50;;;;;9.20;74.11;102309.22;5018919;28;46087;-89
2021/11/18 05:11:11;;;;;;;;;11.50;10.25;;;;;9.25;74.26;102317.72;5018476;28;45683;-85
2021/11/18 05:13:38;;;;;;;;;11.50;11.00;;;;;9.19;74.16;102302.28;5020340;28;45628;-88
2021/11/18 05:16:06;;;;;;;;;15.00;12.00;;;;;9.25;74.08;102315.97;5007166;28;47773;-89
2021/11/18 05:18:33;;;;;;;;;11.50;10.50;;;;;9.12;73.95;102290.38;5026341;28;46328;-89
2021/11/18 05:21:00;;;;;;;;;13.50;12.00;;;;;9.28;74.01;102318.47;5026681;28;45551;-88
2021/11/18 05:23:27;;;;;;;;;12.00;10.75;;;;;9.28;74.04;102317.63;5026290;28;45849;-89
2021/11/18 05:25:53;;;;;;;;;16.25;13.00;;;;;9.19;74.03;102297.91;5026099;28;45747;-89
2021/11/18 05:28:18;;;;;;;;;16.25;13.50;;;;;9.29;74.05;102316.69;5024714;28;46069;-91
2021/11/18 05:34:12;;;;;;;;;15.50;12.00;;;;;9.31;73.91;102321.88;5020543;28;45667;-88
2021/11/18 05:37:02;;;;;;;;;17.00;13.75;;;;;9.09;73.77;102280.84;5004064;28;48610;-89
2021/11/18 05:39:31;;;;;;;;;18.00;14.75;;;;;8.90;73.54;102245.03;5020620;28;46887;-89
2021/11/18 05:41:56;;;;;;;;;21.00;17.75;;;;;8.89;73.63;102245.94;5002169;28;45923;-89
2021/11/18 05:44:32;;;;;;;;;;;;;;;;;;;;;
2021/11/18 05:46:58;;;;;;;;;17.75;15.50;;;;;8.84;73.39;102257.41;5018828;28;75726;-88
2021/11/18 05:49:24;;;;;;;;;13.25;12.00;;;;;9.02;73.53;102294.22;5001550;28;47955;-87
2021/11/18 05:52:08;;;;;;;;;17.25;15.75;;;;;9.03;73.30;102294.16;5018745;28;45592;-87
2021/11/18 05:54:33;;;;;;;;;19.75;14.25;;;;;8.95;73.56;102295.38;5018718;28;45569;-90
2021/11/18 05:56:59;;;;;;;;;20.00;15.50;;;;;8.79;73.70;102271.56;5019189;28;46429;-82
2021/11/18 05:59:25;;;;;;;;;17.75;15.25;;;;;8.70;73.45;102264.91;5001329;28;47541;-85
2021/11/18 06:01:50;;;;;;;;;18.00;14.50;;;;;8.47;73.45;102236.16;5000971;28;45925;-86
2021/11/18 06:04:15;;;;;;;;;18.00;15.50;;;;;8.53;73.60;102251.59;5020744;28;45216;-88
2021/11/18 06:06:41;;;;;;;;;16.50;16.00;;;;;8.47;73.89;102243.16;5004164;28;48265;-90
2021/11/18 06:09:07;;;;;;;;;15.25;14.00;;;;;8.74;73.70;102282.19;5023814;28;46383;-87
2021/11/18 06:11:36;;;;;;;;;24.00;17.25;;;;;9.10;73.38;102345.31;5024452;28;45655;-87
2021/11/18 06:14:04;;;;;;;;;19.25;17.00;;;;;9.13;73.65;102336.50;5027970;28;45532;-87
2021/11/18 06:16:30;;;;;;;;;18.00;17.00;;;;;8.92;73.43;102301.53;5013199;28;45427;-86
2021/11/18 06:19:01;;;;;;;;;17.50;15.00;;;;;9.12;73.58;102340.88;5013116;28;45731;-88
2021/11/18 06:21:29;;;;;;;;;16.00;16.00;;;;;9.10;73.38;102332.25;5039794;28;45131;-86
2021/11/18 06:23:54;;;;;;;;;17.75;15.25;;;;;9.19;73.52;102342.34;5042274;28;45618;-83
2021/11/18 06:26:23;;;;;;;;;16.75;15.50;;;;;9.22;73.43;102350.09;5041511;28;45429;-88
2021/11/18 06:28:49;;;;;;;;;15.00;13.25;;;;;9.18;73.32;102345.88;5041408;28;46017;-86
2021/11/18 06:34:38;;;;;;;;;19.50;16.00;;;;;9.21;73.34;102356.22;5038464;28;45048;-87
2021/11/18 06:37:05;;;;;;;;;16.50;14.00;;;;;9.22;73.34;102357.09;5041321;28;46593;-88
2021/11/18 06:39:32;;;;;;;;;17.00;16.00;;;;;9.19;73.14;102346.72;5041405;28;45269;-88
2021/11/18 06:41:57;;;;;;;;;16.75;14.50;;;;;9.17;73.17;102361.63;5042406;28;45095;-87
2021/11/18 06:44:23;;;;;;;;;19.75;17.00;;;;;9.09;73.03;102355.81;5021012;28;45293;-85
2021/11/18 06:46:49;;;;;;;;;17.75;16.75;;;;;9.10;73.42;102368.84;5033621;28;45265;-86
2021/11/18 06:49:14;;;;;;;;;21.25;17.00;;;;;9.09;73.71;102364.53;5018222;28;47008;-85
2021/11/18 06:51:43;;;;;;;;;13.75;11.25;;;;;8.85;73.39;102323.59;5025832;28;45516;-87
2021/11/18 06:54:13;;;;;;;;;17.00;15.50;;;;;9.13;73.18;102368.72;5028813;28;45774;-87
2021/11/18 06:56:39;;;;;;;;;39.00;34.50;;;;;9.07;73.51;102353.25;5024341;28;45558;-88
2021/11/18 06:59:04;;;;;;;;;28.25;24.00;;;;;9.14;73.41;102364.34;5023842;28;45707;-87
2021/11/18 07:04:53;;;;;;;;;24.75;18.25;;;;;9.07;73.54;102361.09;5019786;28;45605;-86
2021/11/18 07:07:18;;;;;;;;;15.50;15.25;;;;;9.12;73.35;102367.00;5017602;28;47892;-87
2021/11/18 07:09:44;;;;;;;;;19.75;17.00;;;;;9.15;73.45;102374.75;5019388;28;45676;-84
2021/11/18 07:12:13;;;;;;;;;19.25;14.00;;;;;9.16;73.40;102373.00;5023669;28;45567;-90
2021/11/18 07:14:41;;;;;;;;;18.00;16.25;;;;;9.24;73.52;102377.03;5018610;28;45458;-85
2021/11/18 07:17:07;;;;;;;;;19.00;16.75;;;;;9.28;73.30;102378.59;5017644;28;45686;-85
2021/11/18 07:19:33;;;;;;;;;19.50;15.00;;;;;9.31;73.10;102379.41;5017463;28;45632;-85
2021/11/18 07:22:00;;;;;;;;;20.25;17.50;;;;;9.26;72.79;102366.50;5018643;28;45568;-83
2021/11/18 07:24:26;;;;;;;;;22.75;17.25;;;;;9.07;72.69;102339.34;5021146;28;45656;-84
2021/11/18 07:26:53;;;;;;;;;17.50;15.50;;;;;9.34;72.68;102382.75;5021156;28;45582;-87
2021/11/18 07:35:45;;;;;;;;;17.00;14.75;;;;;9.26;72.68;102375.22;5008904;28;45853;-78
2021/11/18 07:38:11;;;;;;;;;21.75;19.50;;;;;9.27;72.64;102374.31;5014074;28;45522;-77
2021/11/18 07:40:38;;;;;;;;;18.50;17.25;;;;;9.32;72.62;102378.50;5013728;28;47121;-77
2021/11/18 07:43:08;;;;;;;;;20.75;18.25;;;;;9.34;72.48;102377.53;5013722;28;45483;-77
2021/11/18 07:45:34;;;;;;;;;16.25;16.00;;;;;9.42;72.59;102383.34;5013784;28;45826;-77
2021/11/18 07:47:59;;;;;;;;;21.25;18.25;;;;;9.44;72.34;102368.44;5013751;28;45573;-75
2021/11/18 07:50:25;;;;;;;;;17.50;16.25;;;;;9.56;72.12;102369.72;5015137;28;46170;-76
2021/11/18 07:52:50;;;;;;;;;16.75;13.25;;;;;9.59;72.13;102372.22;5017422;28;45643;-76
2021/11/18 07:55:20;;;;;;;;;14.75;12.00;;;;;9.58;71.89;102360.91;5017616;28;45631;-78
2021/11/18 07:57:45;;;;;;;;;19.00;15.50;;;;;9.71;71.81;102377.00;5017132;28;46786;-76
2021/11/18 08:00:15;;;;;;;;;13.25;12.00;;;;;9.69;71.78;102357.88;5017164;28;47358;-75
2021/11/18 08:02:43;;;;;;;;;15.50;15.50;;;;;9.76;71.81;102375.06;5017209;28;45593;-76
2021/11/18 08:05:09;;;;;;;;;18.50;15.50;;;;;9.80;71.77;102374.00;5017226;28;45578;-76
2021/11/18 08:07:34;;;;;;;;;12.00;11.25;;;;;9.87;71.78;102383.34;5017161;28;46672;-78
2021/11/18 08:10:00;;;;;;;;;18.75;15.50;;;;;9.93;71.61;102393.53;5016810;28;46964;-77
2021/11/18 08:12:25;;;;;;;;;16.50;15.00;;;;;9.98;71.58;102401.22;5017210;28;45654;-77
2021/11/18 08:14:51;;;;;;;;;17.25;13.25;;;;;9.98;71.53;102401.22;5017126;28;45850;-75
2021/11/18 08:17:16;;;;;;;;;16.50;13.00;;;;;10.04;71.26;102398.38;5019552;28;45655;-77
2021/11/18 08:19:42;;;;;;;;;17.00;11.75;;;;;10.08;71.21;102400.81;5019975;28;47127;-76
2021/11/18 08:22:07;;;;;;;;;14.25;12.50;;;;;10.08;71.19;102385.09;5020203;28;45921;-76
2021/11/18 08:24:33;;;;;;;;;20.75;17.25;;;;;10.18;71.09;102400.47;5018970;28;45530;-76
2021/11/18 08:27:00;;;;;;;;;16.75;15.25;;;;;10.24;70.86;102408.91;5016923;28;46514;-77
2021/11/18 08:29:27;;;;;;;;;17.50;15.00;;;;;10.27;70.85;102403.53;5017072;28;46208;-77
2021/11/18 08:35:17;;;;;;;;;18.50;16.50;;;;;10.36;70.89;102403.19;5015652;28;45689;-74
2021/11/18 08:37:43;;;;;;;;;20.00;17.00;;;;;10.36;70.38;102399.72;5016461;28;46369;-77
2021/11/18 08:40:10;;;;;;;;;23.50;19.75;;;;;10.38;70.74;102393.47;5016532;28;46736;-76
2021/11/18 08:42:35;;;;;;;;;19.50;16.50;;;;;10.41;70.56;102406.47;5016793;28;45633;-78
2021/11/18 08:45:01;;;;;;;;;20.25;17.75;;;;;10.41;70.35;102409.09;5016820;28;45513;-77
2021/11/18 08:47:27;;;;;;;;;21.75;18.50;;;;;10.39;70.50;102400.44;5016730;28;46253;-76
2021/11/18 08:49:53;;;;;;;;;17.25;16.25;;;;;10.51;70.51;102410.41;5016743;28;46180;-77
2021/11/18 08:52:23;;;;;;;;;18.75;16.25;;;;;10.55;70.30;102412.88;5016531;28;45620;-77
2021/11/18 08:54:52;;;;;;;;;18.25;16.25;;;;;10.59;70.14;102409.22;5016646;28;45764;-75
2021/11/18 08:57:19;;;;;;;;;15.75;13.25;;;;;10.59;70.34;102404.81;5016023;28;46424;-76
2021/11/18 08:59:45;;;;;;;;;19.75;19.00;;;;;10.59;70.00;102410.06;5016462;28;46494;-76
2021/11/18 09:05:33;;;;;;;;;21.50;19.50;;;;;10.72;69.93;102415.66;5016120;28;45495;-75
2021/11/18 09:08:00;;;;;;;;;24.00;18.50;;;;;10.67;69.94;102400.13;5016105;28;46434;-79
2021/11/18 09:10:26;;;;;;;;;25.75;19.25;;;;;10.78;69.77;102421.50;5015964;28;46113;-77
2021/11/18 09:12:52;;;;;;;;;23.75;20.50;;;;;10.80;69.73;102410.91;5016515;28;45716;-75
2021/11/18 09:15:21;;;;;;;;;24.75;20.75;;;;;10.83;69.56;102416.03;5016385;28;45772;-75
2021/11/18 09:17:48;;;;;;;;;21.50;19.50;;;;;10.80;69.52;102405.66;5016069;28;46700;-76
2021/11/18 09:20:16;;;;;;;;;14.50;12.75;;;;;10.83;69.57;102403.78;5015908;28;47075;-75
2021/11/18 09:22:42;;;;;;;;;23.75;21.00;;;;;10.98;69.45;102428.50;5016348;28;45828;-76
2021/11/18 09:25:13;;;;;;;;;24.00;19.50;;;;;10.93;69.47;102405.09;5016133;28;45677;-78
2021/11/18 09:27:44;;;;;;;;;19.00;18.25;;;;;11.09;69.27;102422.78;5015872;28;47169;-75
2021/11/18 09:30:15;;;;;;;;;20.50;19.00;;;;;11.13;69.25;102429.56;5016218;28;46358;-75
2021/11/18 09:32:40;;;;;;;;;23.50;22.50;;;;;11.18;68.85;102431.06;5015834;28;45749;-77
2021/11/18 09:35:09;;;;;;;;;23.75;21.00;;;;;11.22;69.14;102430.03;5015794;28;45496;-76
2021/11/18 09:37:35;;;;;;;;;22.50;21.00;;;;;11.18;68.62;102409.25;5015927;28;45612;-77
2021/11/18 09:40:04;;;;;;;;;21.25;18.25;;;;;11.27;68.73;102427.22;5015474;28;47158;-74
2021/11/18 09:43:01;;;;;;;;;20.75;17.25;;;;;11.34;68.42;102434.72;5015655;28;45755;-75
2021/11/18 09:45:30;;;;;;;;;19.50;16.25;;;;;11.38;68.14;102430.22;5015890;28;45802;-75
2021/11/18 09:48:36;;;;;;;;;19.50;17.00;;;;;11.37;68.19;102431.13;5016325;28;46480;-75
2021/11/18 09:51:40;;;;;;;;;23.25;20.50;;;;;11.34;68.29;102423.38;5017350;28;46520;-74
2021/11/18 09:54:15;;;;;;;;;21.25;19.50;;;;;11.45;68.31;102430.75;5006187;28;45780;-75
2021/11/18 09:56:56;;;;;;;;;19.50;17.50;;;;;11.44;68.29;102431.69;4997889;28;45899;-76
2021/11/18 09:59:53;;;;;;;;;16.25;15.50;;;;;11.55;68.29;102440.75;5015779;28;45661;-77
2021/11/18 10:02:44;;;;;;;;;23.75;19.50;;;;;11.61;68.39;102437.88;5015377;28;47139;-78
2021/11/18 10:05:17;;;;;;;;;20.00;16.50;;;;;11.65;68.19;102435.97;5015647;28;45706;-79
2021/11/18 10:07:58;;;;;;;;;28.25;20.25;;;;;11.69;67.97;102437.53;5015307;28;45513;-79
2021/11/18 10:11:05;;;;;;;;;21.50;17.25;;;;;11.72;67.94;102435.59;4997248;28;47152;-78
2021/11/18 10:14:06;;;;;;;;;15.50;14.00;;;;;11.84;67.97;102443.84;4954126;28;46525;-79
2021/11/18 10:20:07;;;;;;;;;21.75;17.50;;;;;11.96;67.42;102452.03;4954299;28;45726;-78
2021/11/18 10:22:36;;;;;;;;;19.75;18.50;;;;;12.05;67.66;102453.34;4954107;28;45694;-77
2021/11/18 10:25:06;;;;;;;;;22.50;19.00;;;;;12.12;67.37;102452.13;4953807;28;45563;-77
2021/11/18 10:27:37;;;;;;;;;25.25;21.75;;;;;12.17;67.61;102456.25;4953948;28;45643;-77
2021/11/18 10:30:08;;;;;;;;;24.50;23.00;;;;;12.22;67.00;102456.03;4954024;28;45640;-77
2021/11/18 10:36:07;;;;;;;;;25.50;22.50;;;;;12.29;66.78;102452.19;4952897;28;46296;-75
2021/11/18 10:38:33;;;;;;;;;26.25;22.00;;;;;12.30;66.59;102453.03;4953281;28;45802;-76
2021/11/18 10:41:24;;;;;;;;;30.00;25.50;;;;;12.25;66.43;102458.53;4953421;28;45616;-77
2021/11/18 10:44:07;;;;;;;;;27.75;22.75;;;;;12.23;66.51;102463.00;4953198;28;46509;-76
2021/11/18 10:46:56;;;;;;;;;30.00;24.25;;;;;12.20;66.59;102466.59;4952854;28;47131;-77
2021/11/18 10:49:55;;;;;;;;;24.50;21.75;;;;;12.19;66.46;102459.66;4942488;28;45783;-77
2021/11/18 10:52:28;;;;;;;;;23.50;21.50;;;;;12.17;66.58;102456.25;4994451;28;45985;-76
2021/11/18 10:55:34;;;;;;;;;19.25;18.00;;;;;12.24;66.46;102462.06;4994378;28;46540;-76
2021/11/18 10:58:05;;;;;;;;;23.25;20.50;;;;;12.18;66.64;102451.84;4936896;28;47514;-77
2021/11/18 11:03:57;;;;;;;;;20.25;17.75;;;;;12.24;66.60;102462.06;4953229;28;45619;-78
2021/11/18 11:06:30;;;;;;;;;25.00;19.50;;;;;12.10;66.93;102439.06;4952775;28;45706;-77
2021/11/18 11:09:08;;;;;;;;;25.25;20.75;;;;;12.20;66.48;102463.97;4952965;28;47161;-77
2021/11/18 11:12:01;;;;;;;;;27.50;22.75;;;;;12.19;66.84;102464.06;4952989;28;45659;-75
2021/11/18 11:14:27;;;;;;;;;25.00;22.00;;;;;12.19;66.65;102459.66;4952945;28;45731;-78
2021/11/18 11:20:24;;;;;;;;;28.00;22.50;;;;;12.18;66.38;102450.06;4952764;28;45646;-76
2021/11/18 11:22:52;;;;;;;;;26.25;20.25;;;;;12.17;66.80;102452.78;4953253;28;45798;-77
2021/11/18 11:25:47;;;;;;;;;27.75;23.75;;;;;12.19;66.82;102450.94;4952246;28;45933;-75
2021/11/18 11:28:33;;;;;;;;;19.50;18.00;;;;;12.18;66.58;102449.22;4952717;28;47372;-76
2021/11/18 11:31:36;;;;;;;;;27.00;22.75;;;;;12.24;66.80;102448.06;4957773;28;46112;-76
2021/11/18 11:34:42;;;;;;;;;19.00;18.25;;;;;12.31;66.24;102441.59;4995032;28;45714;-77
2021/11/18 11:37:16;;;;;;;;;19.50;16.00;;;;;12.35;66.52;102444.00;4953991;28;45848;-76
2021/11/18 11:40:06;;;;;;;;;17.00;14.75;;;;;12.38;66.10;102433.31;4953073;28;47510;-77
2021/11/18 11:43:13;;;;;;;;;19.25;18.00;;;;;12.41;65.86;102432.34;4952815;28;45830;-75
2021/11/18 11:52:08;;;;;;;;;9.00;8.00;;;;;12.47;65.05;102437.28;4952250;28;45873;-75
2021/11/18 11:54:57;;;;;;;;;11.75;9.00;;;;;12.49;64.97;102430.16;4952451;28;46182;-74
2021/11/18 11:57:46;;;;;;;;;9.00;8.50;;;;;12.56;64.79;102432.41;4875792;29;45841;-75
2021/11/18 12:04:01;;;;;;;;;12.75;9.00;;;;;12.66;64.12;102430.19;4838474;29;46216;-76
2021/11/18 12:06:26;;;;;;;;;8.50;7.75;;;;;12.72;63.57;102427.25;4837850;29;46740;-77
2021/11/18 12:09:11;;;;;;;;;11.50;9.00;;;;;12.76;63.33;102435.81;4838526;29;45745;-76
2021/11/18 12:11:58;;;;;;;;;11.25;8.75;;;;;12.60;63.53;102407.66;4838843;29;45808;-77
2021/11/18 12:14:43;;;;;;;;;9.75;9.00;;;;;12.78;63.00;102437.44;4864390;29;47536;-77
2021/11/18 12:20:35;;;;;;;;;11.00;9.25;;;;;12.86;63.08;102430.00;4875552;28;45921;-76
2021/11/18 12:23:05;;;;;;;;;12.00;9.50;;;;;12.86;62.43;102429.16;4875586;29;45616;-78
2021/11/18 12:25:46;;;;;;;;;9.25;8.00;;;;;12.92;62.26;102434.09;4875314;29;46333;-77
2021/11/18 12:28:11;;;;;;;;;8.75;5.00;;;;;12.92;61.91;102432.31;4875531;29;47193;-77
2021/11/18 12:37:39;;;;;;;;;7.75;5.00;;;;;13.13;60.95;102427.75;4932991;28;46066;-77
2021/11/18 12:40:46;;;;;;;;;6.25;4.75;;;;;13.23;60.46;102423.69;4965771;28;46219;-78
2021/11/18 12:43:26;;;;;;;;;4.75;4.00;;;;;13.29;59.95;102420.75;4996138;28;45740;-75
2021/11/18 12:53:10;;;;;;;;;4.00;4.00;;;;;13.54;58.72;102401.00;4974546;28;45860;-76
2021/11/18 12:55:59;;;;;;;;;7.00;4.75;;;;;13.55;59.04;102389.53;4974495;28;45766;-76
2021/11/18 12:58:24;;;;;;;;;5.00;4.75;;;;;13.66;58.63;102400.31;4958269;28;45854;-76
2021/11/18 13:01:32;;;;;;;;;10.00;6.00;;;;;13.63;58.94;102382.91;4974555;28;47258;-78
2021/11/18 13:04:01;;;;;;;;;8.50;6.00;;;;;13.81;59.40;102394.22;4974881;28;45817;-78
2021/11/18 13:06:29;;;;;;;;;5.75;4.25;;;;;13.88;58.86;102396.41;4974367;28;45662;-78